Terminal Aerodrome Forecast
Issued by NWS Louisville, KY

Home | Current Version | Previous Version | Text Only | Print | Product List | Glossary On
Versions: 1 2 3 4 5 6 7 8 9 10 11 12 13 14 15
000
FTUS43 KLMK 271700
TAFSDF
TAF
KSDF 271720Z 2718/2824 32010G15KT P6SM OVC022
     FM280100 28004KT P6SM SCT250
     FM280900 VRB03KT P6SM BKN070
     FM281600 18008KT P6SM SCT250=

USA.gov is the U.S. government's official web portal to all federal, state and local government web resources and services.